Time;durP1;ratioP1;P1;durP2;ratioP2;P2;SDS_P1;SDS_P2;PMS_P1;PMS_P2;Temp;Humidity;BMP_temperature;BMP_pressure;BME280_temperature;BME280_humidity;BME280_pressure;Samples;Min_cycle;Max_cycle;Signal;HPM_P1;HPM_P2
2023/11/25 00:00:16;;;;;;;9.43;1.48;;;2.30;99.90;;;;;;5060553;28;20032;-73
2023/11/25 00:02:43;;;;;;;14.35;1.50;;;2.30;99.90;;;;;;5061275;28;20017;-72
2023/11/25 00:05:09;;;;;;;15.88;1.40;;;2.30;99.90;;;;;;5061647;28;20021;-72
2023/11/25 00:07:34;;;;;;;8.45;1.52;;;2.30;99.90;;;;;;5061309;28;20044;-73
2023/11/25 00:10:00;;;;;;;11.85;1.92;;;2.30;99.90;;;;;;5061543;28;20442;-74
2023/11/25 00:12:26;;;;;;;8.77;1.50;;;2.30;99.90;;;;;;5061663;28;20021;-71
2023/11/25 00:14:51;;;;;;;7.78;1.30;;;2.30;99.90;;;;;;5061713;28;20060;-74
2023/11/25 00:17:17;;;;;;;9.23;1.48;;;2.30;99.90;;;;;;5061190;28;20036;-73
2023/11/25 00:19:43;;;;;;;7.25;1.63;;;2.30;99.90;;;;;;5061954;28;20029;-74
2023/11/25 00:22:09;;;;;;;9.55;1.75;;;2.30;99.90;;;;;;5061337;28;20017;-72
2023/11/25 00:24:35;;;;;;;5.43;1.17;;;2.30;99.90;;;;;;5061445;28;20096;-72
2023/11/25 00:27:01;;;;;;;15.48;1.52;;;2.40;99.90;;;;;;5061235;28;20016;-74
2023/11/25 00:29:28;;;;;;;11.13;1.67;;;2.30;99.90;;;;;;5061101;28;20068;-71
2023/11/25 00:31:57;;;;;;;13.48;1.65;;;2.40;99.90;;;;;;5061227;28;20410;-72
2023/11/25 00:34:24;;;;;;;8.85;1.20;;;2.30;99.90;;;;;;5061304;28;20024;-73
2023/11/25 00:36:54;;;;;;;8.63;1.10;;;2.30;99.90;;;;;;5061207;28;20052;-73
2023/11/25 00:39:20;;;;;;;5.60;1.45;;;2.30;99.90;;;;;;5061481;28;20070;-73
2023/11/25 00:41:46;;;;;;;5.70;1.25;;;2.30;99.90;;;;;;5060808;28;20075;-72
2023/11/25 00:44:12;;;;;;;11.88;1.13;;;2.40;99.90;;;;;;5061120;28;20031;-73
2023/11/25 00:46:38;;;;;;;11.70;1.52;;;2.30;99.90;;;;;;5060063;28;20086;-73
2023/11/25 00:49:04;;;;;;;7.40;1.67;;;2.30;99.90;;;;;;5061339;28;20108;-74
2023/11/25 00:51:31;;;;;;;9.07;1.80;;;2.30;99.90;;;;;;5059707;28;20053;-73
2023/11/25 00:53:57;;;;;;;15.07;1.70;;;2.30;99.90;;;;;;5060937;28;20025;-71
2023/11/25 00:56:23;;;;;;;15.85;1.40;;;2.30;99.90;;;;;;5060927;28;20033;-72
2023/11/25 00:58:49;;;;;;;13.23;1.80;;;2.30;99.90;;;;;;5060663;28;20028;-71
2023/11/25 01:01:15;;;;;;;12.23;1.70;;;2.30;99.90;;;;;;5060190;28;20033;-70
2023/11/25 01:03:40;;;;;;;7.90;1.63;;;2.30;99.90;;;;;;5060997;28;20040;-73
2023/11/25 01:06:09;;;;;;;11.65;1.63;;;2.20;99.90;;;;;;5060725;28;20040;-70
2023/11/25 01:08:36;;;;;;;6.93;1.13;;;2.20;99.90;;;;;;5061075;28;20091;-72
2023/11/25 01:11:02;;;;;;;10.00;1.30;;;2.20;99.90;;;;;;5060836;28;20009;-71
2023/11/25 01:13:28;;;;;;;8.52;1.38;;;2.20;99.90;;;;;;5060599;28;20029;-73
2023/11/25 01:15:54;;;;;;;12.27;1.52;;;2.20;99.90;;;;;;5061041;28;20029;-70
2023/11/25 01:18:20;;;;;;;12.07;1.85;;;2.20;99.90;;;;;;5061452;28;20029;-70
2023/11/25 01:20:46;;;;;;;10.63;1.02;;;2.30;99.90;;;;;;5064813;28;20025;-70
2023/11/25 01:23:12;;;;;;;11.65;1.48;;;2.30;99.90;;;;;;5065154;28;20108;-70
2023/11/25 01:25:38;;;;;;;10.10;1.42;;;2.30;99.90;;;;;;5062449;28;20057;-71
2023/11/25 01:28:03;;;;;;;13.50;1.38;;;2.30;99.90;;;;;;5064070;28;20021;-71
2023/11/25 01:30:39;;;;;;;8.25;1.60;;;2.30;99.90;;;;;;5064516;28;20027;-69
2023/11/25 01:33:06;;;;;;;11.50;1.55;;;2.30;99.90;;;;;;5064007;28;20046;-72
2023/11/25 01:35:32;;;;;;;8.63;1.48;;;2.30;99.90;;;;;;5064342;28;20134;-71
2023/11/25 01:37:58;;;;;;;12.45;1.50;;;2.30;99.90;;;;;;5063308;28;20028;-72
2023/11/25 01:40:23;;;;;;;4.32;1.00;;;2.30;99.90;;;;;;5062489;28;20047;-73
2023/11/25 01:42:50;;;;;;;7.22;1.38;;;2.30;99.90;;;;;;5064931;28;20047;-70
2023/11/25 01:45:17;;;;;;;16.27;1.60;;;2.30;99.90;;;;;;5064456;28;20033;-73
2023/11/25 01:47:43;;;;;;;7.70;1.30;;;2.30;99.90;;;;;;5063861;28;20027;-72
2023/11/25 01:50:10;;;;;;;9.23;1.63;;;2.30;99.90;;;;;;5064392;28;20041;-71
2023/11/25 01:52:37;;;;;;;10.18;1.88;;;2.30;99.90;;;;;;5062535;28;21003;-73
2023/11/25 01:55:04;;;;;;;12.88;1.80;;;2.30;99.90;;;;;;5064069;28;20043;-71
2023/11/25 01:57:31;;;;;;;8.32;1.30;;;2.30;99.90;;;;;;5062386;28;20032;-70
2023/11/25 01:59:57;;;;;;;12.50;1.70;;;2.30;99.90;;;;;;5061506;28;20119;-72
2023/11/25 02:02:27;;;;;;;7.57;1.60;;;2.30;99.90;;;;;;5061794;28;20021;-72
2023/11/25 02:04:53;;;;;;;12.82;2.13;;;2.30;99.90;;;;;;5063778;28;20052;-73
2023/11/25 02:07:18;;;;;;;9.88;1.90;;;2.30;99.90;;;;;;5063232;28;20025;-73
2023/11/25 02:09:44;;;;;;;22.90;2.45;;;2.30;99.90;;;;;;5062855;28;20047;-72
2023/11/25 02:12:11;;;;;;;9.43;1.77;;;2.30;99.90;;;;;;5063431;28;20028;-71
2023/11/25 02:14:37;;;;;;;14.00;2.17;;;2.30;99.90;;;;;;5062913;28;20025;-72
2023/11/25 02:17:04;;;;;;;14.02;1.83;;;2.30;99.90;;;;;;5062742;28;20029;-72
2023/11/25 02:19:31;;;;;;;9.43;1.70;;;2.30;99.90;;;;;;5061862;28;20024;-72
2023/11/25 02:21:57;;;;;;;10.52;2.50;;;2.30;99.90;;;;;;5061819;28;20051;-72
2023/11/25 02:24:26;;;;;;;11.07;1.75;;;2.30;99.90;;;;;;5061910;28;20088;-72
2023/11/25 02:26:59;;;;;;;9.52;2.10;;;2.30;99.90;;;;;;5061765;28;20052;-71
2023/11/25 02:29:25;;;;;;;11.43;2.17;;;2.30;99.90;;;;;;5061215;28;20131;-73
2023/11/25 02:31:51;;;;;;;17.25;2.08;;;2.30;99.90;;;;;;5062552;28;20025;-73
2023/11/25 02:34:17;;;;;;;17.70;2.00;;;2.30;99.90;;;;;;5062429;28;20387;-73
2023/11/25 02:36:44;;;;;;;16.67;2.25;;;2.30;99.90;;;;;;5062565;28;20048;-73
2023/11/25 02:39:09;;;;;;;10.85;1.95;;;2.30;99.90;;;;;;5061746;28;20508;-72
2023/11/25 02:41:36;;;;;;;19.33;2.85;;;2.30;99.90;;;;;;5060272;28;20049;-72
2023/11/25 02:44:02;;;;;;;11.20;1.88;;;2.30;99.90;;;;;;5062819;28;20021;-71
2023/11/25 02:46:27;;;;;;;18.33;2.60;;;2.30;99.90;;;;;;5062780;28;20021;-71
2023/11/25 02:48:54;;;;;;;19.20;2.08;;;2.30;99.90;;;;;;5062875;28;20033;-72
2023/11/25 02:51:19;;;;;;;8.43;1.92;;;2.30;99.90;;;;;;5062535;28;20036;-73
2023/11/25 02:53:45;;;;;;;13.25;2.90;;;2.30;99.90;;;;;;5062377;28;20029;-72
2023/11/25 02:56:11;;;;;;;15.52;1.88;;;2.40;99.90;;;;;;5062387;28;20045;-73
2023/11/25 02:58:37;;;;;;;11.20;2.20;;;2.30;99.90;;;;;;5060749;28;20031;-72
2023/11/25 03:01:07;;;;;;;14.48;1.92;;;2.40;99.90;;;;;;5062109;28;20029;-72
2023/11/25 03:03:36;;;;;;;14.60;1.73;;;2.40;99.90;;;;;;5061516;28;20040;-74
2023/11/25 03:06:03;;;;;;;15.10;2.00;;;2.40;99.90;;;;;;5060585;28;20116;-73
2023/11/25 03:08:28;;;;;;;10.38;1.95;;;2.40;99.90;;;;;;5061108;28;20047;-72
2023/11/25 03:10:55;;;;;;;8.80;1.67;;;2.50;99.90;;;;;;5061982;28;20089;-73
2023/11/25 03:13:21;;;;;;;23.23;1.98;;;2.50;99.90;;;;;;5061423;28;20031;-73
2023/11/25 03:15:47;;;;;;;16.52;2.10;;;2.60;99.90;;;;;;5060344;28;20060;-72
2023/11/25 03:18:12;;;;;;;12.57;1.85;;;2.60;99.90;;;;;;5060808;28;20032;-70
2023/11/25 03:20:39;;;;;;;13.93;1.88;;;2.60;99.90;;;;;;5061045;28;20067;-73
2023/11/25 03:23:06;;;;;;;12.25;1.65;;;2.70;99.90;;;;;;5061127;28;20025;-72
2023/11/25 03:25:32;;;;;;;13.15;1.98;;;2.70;99.90;;;;;;5060236;28;20017;-74
2023/11/25 03:27:58;;;;;;;11.55;2.00;;;2.70;99.90;;;;;;5059058;28;20946;-73
2023/11/25 03:30:26;;;;;;;12.45;1.98;;;2.70;99.90;;;;;;5061328;28;20532;-72
2023/11/25 03:32:51;;;;;;;11.85;1.88;;;2.70;99.90;;;;;;5061131;28;20075;-74
2023/11/25 03:35:17;;;;;;;14.68;3.25;;;2.70;99.90;;;;;;5061549;28;20044;-75
2023/11/25 03:37:43;;;;;;;21.33;2.15;;;2.70;99.90;;;;;;5061166;28;20032;-73
2023/11/25 03:40:13;;;;;;;27.08;2.33;;;2.70;99.90;;;;;;5061146;28;20139;-74
2023/11/25 03:42:43;;;;;;;16.58;2.30;;;2.80;99.90;;;;;;5057977;28;20059;-74
2023/11/25 03:45:12;;;;;;;13.88;2.42;;;2.80;99.90;;;;;;5059865;28;20088;-74
2023/11/25 03:47:40;;;;;;;10.63;1.50;;;2.90;99.90;;;;;;5060132;28;20041;-78
2023/11/25 03:50:06;;;;;;;16.17;2.40;;;2.90;99.90;;;;;;5060995;28;20075;-74
2023/11/25 03:52:32;;;;;;;11.73;1.90;;;2.90;99.90;;;;;;5060182;28;20017;-73
2023/11/25 03:54:58;;;;;;;12.30;1.58;;;2.90;99.90;;;;;;5059478;28;20041;-73
2023/11/25 03:57:24;;;;;;;16.27;1.95;;;2.90;99.90;;;;;;5060735;28;20028;-72
2023/11/25 03:59:50;;;;;;;9.63;1.80;;;2.90;99.90;;;;;;5058126;28;20024;-72
2023/11/25 04:02:15;;;;;;;12.30;2.08;;;2.90;99.90;;;;;;5061321;28;20047;-73
2023/11/25 04:04:41;;;;;;;19.83;1.95;;;2.90;99.90;;;;;;5060713;28;20028;-72
2023/11/25 04:07:06;;;;;;;15.98;1.95;;;3.00;99.90;;;;;;5060764;28;20332;-73
2023/11/25 04:09:32;;;;;;;18.27;2.40;;;3.00;99.90;;;;;;5059060;28;20029;-73
2023/11/25 04:11:58;;;;;;;20.08;2.20;;;3.00;99.90;;;;;;5059989;28;20035;-72
2023/11/25 04:14:25;;;;;;;11.00;1.90;;;3.00;99.90;;;;;;5059927;28;20025;-72
2023/11/25 04:16:51;;;;;;;22.90;2.58;;;3.00;99.90;;;;;;5060636;28;20055;-72
2023/11/25 04:19:16;;;;;;;20.05;2.17;;;3.10;99.90;;;;;;5060823;28;20071;-72
2023/11/25 04:21:45;;;;;;;17.00;2.28;;;3.00;99.90;;;;;;5057941;28;20024;-71
2023/11/25 04:24:11;;;;;;;22.42;2.08;;;3.10;99.90;;;;;;5060404;28;20036;-71
2023/11/25 04:26:37;;;;;;;15.70;2.78;;;3.10;99.90;;;;;;5060218;28;20033;-70
2023/11/25 04:29:04;;;;;;;17.98;2.22;;;3.10;99.90;;;;;;5060385;28;20031;-74
2023/11/25 04:31:31;;;;;;;19.92;1.98;;;3.10;99.90;;;;;;5060525;28;20056;-70
2023/11/25 04:33:57;;;;;;;16.70;1.75;;;3.20;99.90;;;;;;5059865;28;20021;-74
2023/11/25 04:36:24;;;;;;;12.98;1.77;;;3.20;99.90;;;;;;5058607;28;20029;-76
2023/11/25 04:38:50;;;;;;;21.48;3.30;;;3.30;99.90;;;;;;5059154;28;20052;-75
2023/11/25 04:41:16;;;;;;;15.00;1.92;;;3.30;99.90;;;;;;5059069;28;20104;-74
2023/11/25 04:43:41;;;;;;;14.20;1.83;;;3.30;99.90;;;;;;5058702;28;20025;-73
2023/11/25 04:46:10;;;;;;;14.70;1.90;;;3.30;99.90;;;;;;5060422;28;20531;-72
2023/11/25 04:48:36;;;;;;;19.52;1.83;;;3.40;99.90;;;;;;5059357;28;20034;-72
2023/11/25 04:51:02;;;;;;;19.58;2.05;;;3.40;99.90;;;;;;5058710;28;20077;-76
2023/11/25 04:53:27;;;;;;;15.73;1.95;;;3.40;99.90;;;;;;5061133;28;20025;-75
2023/11/25 04:55:53;;;;;;;14.30;2.13;;;3.40;99.90;;;;;;5063873;28;20110;-74
2023/11/25 04:58:19;;;;;;;18.45;2.38;;;3.40;99.90;;;;;;5064056;28;20071;-75
2023/11/25 05:00:46;;;;;;;16.77;2.15;;;3.30;99.90;;;;;;5062488;28;20032;-73
2023/11/25 05:03:12;;;;;;;14.38;2.00;;;3.30;99.90;;;;;;5064395;28;20083;-73
2023/11/25 05:05:38;;;;;;;12.38;2.00;;;3.30;99.90;;;;;;5064146;28;20039;-72
2023/11/25 05:08:05;;;;;;;15.15;1.52;;;3.40;99.90;;;;;;5063094;28;20013;-80
2023/11/25 05:10:31;;;;;;;11.55;1.50;;;3.40;99.90;;;;;;5062114;28;20048;-75
2023/11/25 05:12:56;;;;;;;18.67;2.15;;;3.40;99.90;;;;;;5064519;28;20386;-77
2023/11/25 05:15:27;;;;;;;8.68;1.73;;;3.40;99.90;;;;;;5063082;28;20087;-79
2023/11/25 05:17:53;;;;;;;17.95;2.53;;;3.40;99.90;;;;;;5064226;28;20021;-73
2023/11/25 05:20:19;;;;;;;18.73;2.17;;;3.50;99.90;;;;;;5062961;28;20116;-75
2023/11/25 05:22:45;;;;;;;12.10;1.95;;;3.40;99.90;;;;;;5062780;28;20044;-75
2023/11/25 05:25:13;;;;;;;7.80;1.17;;;3.40;99.90;;;;;;5064403;28;20029;-75
2023/11/25 05:27:39;;;;;;;8.98;1.45;;;3.50;99.90;;;;;;5064627;28;20032;-74
2023/11/25 05:30:05;;;;;;;16.65;1.55;;;3.50;99.90;;;;;;5063944;28;20029;-76
2023/11/25 05:32:31;;;;;;;16.35;2.10;;;3.50;99.90;;;;;;5061825;28;20040;-73
2023/11/25 05:34:57;;;;;;;14.30;1.58;;;3.50;99.90;;;;;;5063976;28;20017;-77
2023/11/25 05:37:23;;;;;;;15.57;2.25;;;3.50;99.90;;;;;;5063868;28;20021;-77
2023/11/25 05:39:50;;;;;;;15.45;2.15;;;3.50;99.90;;;;;;5063985;28;20021;-76
2023/11/25 05:42:23;;;;;;;5.03;0.93;;;3.50;99.90;;;;;;5062394;28;20148;-76
2023/11/25 05:44:49;;;;;;;10.57;1.40;;;3.40;99.90;;;;;;5063190;28;20049;-78
2023/11/25 05:47:15;;;;;;;6.45;1.10;;;3.40;99.90;;;;;;5062627;28;20150;-82
2023/11/25 05:49:42;;;;;;;9.20;1.42;;;3.40;99.90;;;;;;5063747;28;20091;-82
2023/11/25 05:52:08;;;;;;;10.43;0.98;;;3.30;99.90;;;;;;5062026;28;20083;-73
2023/11/25 05:54:34;;;;;;;12.15;1.23;;;3.30;99.90;;;;;;5061705;28;20040;-75
2023/11/25 05:57:00;;;;;;;6.43;1.10;;;3.20;99.90;;;;;;5063527;28;20041;-75
2023/11/25 05:59:25;;;;;;;7.70;1.00;;;3.20;99.90;;;;;;5060558;28;21425;-74
2023/11/25 06:01:51;;;;;;;7.40;0.70;;;3.10;99.90;;;;;;5062746;28;20029;-75
2023/11/25 06:04:16;;;;;;;5.18;0.90;;;3.00;99.90;;;;;;5062110;28;20457;-75
2023/11/25 06:06:42;;;;;;;7.40;0.80;;;3.00;99.90;;;;;;5063528;28;20021;-75
2023/11/25 06:09:11;;;;;;;6.63;0.85;;;3.10;99.90;;;;;;5062782;28;20032;-77
2023/11/25 06:11:38;;;;;;;4.00;0.80;;;3.00;99.90;;;;;;5063336;28;20068;-73
2023/11/25 06:14:04;;;;;;;6.78;1.30;;;3.10;99.90;;;;;;5063556;28;20028;-72
2023/11/25 06:16:30;;;;;;;7.25;0.60;;;3.10;99.90;;;;;;5062187;28;20033;-75
2023/11/25 06:18:56;;;;;;;7.35;1.27;;;3.10;99.90;;;;;;5060198;28;20021;-77
2023/11/25 06:21:23;;;;;;;4.70;1.17;;;3.10;99.90;;;;;;5061738;28;20029;-75
2023/11/25 06:23:50;;;;;;;2.75;0.95;;;3.10;99.90;;;;;;5063990;28;20040;-76
2023/11/25 06:26:16;;;;;;;1.83;0.70;;;3.00;99.90;;;;;;5063173;28;20021;-76
2023/11/25 06:28:44;;;;;;;10.23;1.02;;;3.10;99.90;;;;;;5063320;28;20093;-74
2023/11/25 06:31:12;;;;;;;4.78;0.80;;;3.00;99.90;;;;;;5063565;28;20033;-76
2023/11/25 06:33:41;;;;;;;2.30;0.70;;;3.00;99.90;;;;;;5061831;28;20056;-76
2023/11/25 06:36:08;;;;;;;3.38;0.55;;;3.10;99.90;;;;;;5062756;28;20033;-76
2023/11/25 06:38:34;;;;;;;1.35;0.40;;;2.90;99.90;;;;;;5063132;28;20025;-74
2023/11/25 06:41:02;;;;;;;3.08;0.55;;;3.00;99.90;;;;;;5062802;28;20118;-73
2023/11/25 06:43:29;;;;;;;1.30;0.52;;;3.00;99.90;;;;;;5062933;28;20021;-75
2023/11/25 06:45:55;;;;;;;2.97;0.40;;;2.90;99.90;;;;;;5062779;28;20029;-75
2023/11/25 06:48:23;;;;;;;3.97;0.55;;;2.90;99.90;;;;;;5061115;28;20146;-75
2023/11/25 06:50:49;;;;;;;4.18;0.52;;;2.90;99.90;;;;;;5060141;28;20034;-73
2023/11/25 06:53:15;;;;;;;2.45;0.60;;;2.90;99.90;;;;;;5060582;28;20486;-76
2023/11/25 06:55:41;;;;;;;3.58;0.80;;;2.90;99.90;;;;;;5062648;28;20100;-73
2023/11/25 06:58:11;;;;;;;1.92;0.73;;;2.90;99.90;;;;;;5062851;28;20032;-77
2023/11/25 07:00:37;;;;;;;1.85;0.40;;;2.90;99.90;;;;;;5060983;28;20025;-76
2023/11/25 07:03:04;;;;;;;6.03;0.70;;;2.90;99.90;;;;;;5062425;28;20020;-77
2023/11/25 07:05:30;;;;;;;4.32;0.80;;;2.90;99.90;;;;;;5062649;28;20029;-74
2023/11/25 07:07:56;;;;;;;5.10;0.65;;;2.90;99.90;;;;;;5062604;28;20056;-74
2023/11/25 07:10:22;;;;;;;2.28;0.73;;;3.00;99.90;;;;;;5062632;28;20021;-81
2023/11/25 07:12:47;;;;;;;3.10;0.52;;;3.00;99.90;;;;;;5060885;28;20063;-72
2023/11/25 07:15:14;;;;;;;5.45;0.82;;;3.00;99.90;;;;;;5060928;28;20037;-79
2023/11/25 07:17:39;;;;;;;3.20;0.77;;;3.20;99.90;;;;;;5058876;28;20032;-75
2023/11/25 07:20:11;;;;;;;5.60;1.15;;;3.10;99.90;;;;;;5061790;28;20025;-75
2023/11/25 07:22:41;;;;;;;5.60;1.50;;;3.10;99.90;;;;;;5060079;28;20025;-78
2023/11/25 07:25:11;;;;;;;8.65;1.38;;;3.10;99.90;;;;;;5058255;28;20029;-74
2023/11/25 07:27:38;;;;;;;4.55;0.70;;;3.10;99.90;;;;;;5062054;28;20078;-75
2023/11/25 07:30:06;;;;;;;8.23;0.90;;;3.10;99.90;;;;;;5061976;28;20029;-75
2023/11/25 07:32:32;;;;;;;5.72;1.30;;;3.20;99.90;;;;;;5058597;28;20040;-74
2023/11/25 07:34:58;;;;;;;11.50;1.10;;;3.20;99.90;;;;;;5062002;28;20032;-73
2023/11/25 07:37:23;;;;;;;9.70;1.30;;;3.20;99.90;;;;;;5061676;28;21322;-77
2023/11/25 07:39:49;;;;;;;6.38;1.50;;;3.30;99.90;;;;;;5062128;28;20047;-82
2023/11/25 07:42:14;;;;;;;9.15;1.48;;;3.30;99.90;;;;;;5060512;28;20144;-73
2023/11/25 07:44:42;;;;;;;7.32;1.45;;;3.30;99.90;;;;;;5061584;28;20083;-75
2023/11/25 07:47:08;;;;;;;5.20;1.33;;;3.40;99.90;;;;;;5061469;28;20418;-74
2023/11/25 07:49:33;;;;;;;10.32;1.60;;;3.40;99.90;;;;;;5061492;28;20029;-73
2023/11/25 07:51:59;;;;;;;12.02;1.73;;;3.40;99.90;;;;;;5061457;28;20108;-72
2023/11/25 07:54:25;;;;;;;7.47;1.60;;;3.50;99.90;;;;;;5060186;28;20025;-73
2023/11/25 07:56:51;;;;;;;9.68;1.50;;;3.50;99.90;;;;;;5061383;28;20039;-75
2023/11/25 07:59:17;;;;;;;20.50;4.78;;;3.50;99.90;;;;;;5058780;28;20021;-73
2023/11/25 08:01:43;;;;;;;12.23;1.73;;;3.50;99.90;;;;;;5061902;28;20351;-72
2023/11/25 08:04:09;;;;;;;12.85;4.72;;;3.50;99.90;;;;;;5060000;28;20028;-70
2023/11/25 08:06:35;;;;;;;13.60;2.70;;;3.60;99.90;;;;;;5061388;28;20043;-70
2023/11/25 08:09:53;;;;;;;6.95;1.60;;;3.60;99.90;;;;;;5060263;28;20084;-69
2023/11/25 08:12:19;;;;;;;2.33;0.77;;;3.60;99.90;;;;;;5055596;28;20040;-70
2023/11/25 08:14:47;;;;;;;4.28;1.27;;;3.60;99.90;;;;;;5061644;28;20044;-71
2023/11/25 08:17:12;;;;;;;7.53;1.17;;;3.60;99.90;;;;;;5059602;28;20041;-71
2023/11/25 08:19:38;;;;;;;14.10;3.75;;;3.70;99.90;;;;;;5060476;28;20160;-71
2023/11/25 08:22:04;;;;;;;8.65;1.55;;;3.70;99.90;;;;;;5061276;28;20037;-68
2023/11/25 08:24:30;;;;;;;6.50;1.33;;;3.70;99.90;;;;;;5061345;28;20096;-71
2023/11/25 08:26:56;;;;;;;5.88;1.00;;;3.70;99.90;;;;;;5060745;28;20024;-72
2023/11/25 08:29:22;;;;;;;5.05;1.42;;;3.70;99.90;;;;;;5061389;28;20099;-72
2023/11/25 08:31:47;;;;;;;8.93;1.42;;;3.70;99.90;;;;;;5060142;28;20079;-71
2023/11/25 08:34:14;;;;;;;4.70;1.20;;;3.70;99.90;;;;;;5061055;28;20456;-72
2023/11/25 08:36:44;;;;;;;9.10;1.45;;;3.70;99.90;;;;;;5059294;28;20067;-72
2023/11/25 08:39:13;;;;;;;12.35;1.48;;;3.70;99.90;;;;;;5058609;28;20450;-73
2023/11/25 08:41:43;;;;;;;6.90;1.58;;;3.90;99.90;;;;;;5057826;28;20036;-72
2023/11/25 08:44:12;;;;;;;13.88;2.65;;;4.00;99.90;;;;;;5059835;28;20029;-71
2023/11/25 08:46:39;;;;;;;9.05;1.67;;;4.10;99.90;;;;;;5059944;28;20032;-74
2023/11/25 08:49:06;;;;;;;12.15;2.05;;;4.30;99.90;;;;;;5057958;28;20052;-74
2023/11/25 08:51:32;;;;;;;10.30;1.95;;;4.40;99.90;;;;;;5060674;28;20462;-73
2023/11/25 08:53:57;;;;;;;11.77;1.90;;;4.40;99.90;;;;;;5060869;28;20043;-72
2023/11/25 08:56:25;;;;;;;7.63;1.48;;;4.50;99.90;;;;;;5059484;28;20037;-77
2023/11/25 08:58:50;;;;;;;12.95;1.52;;;4.60;99.90;;;;;;5060658;28;20090;-74
2023/11/25 09:01:17;;;;;;;10.02;2.28;;;4.70;99.90;;;;;;5057175;28;20783;-73
2023/11/25 09:03:42;;;;;;;9.02;1.90;;;4.70;99.90;;;;;;5058130;28;20025;-76
2023/11/25 09:06:08;;;;;;;10.43;1.30;;;4.80;99.90;;;;;;5060492;28;20671;-74
2023/11/25 09:08:35;;;;;;;7.75;1.52;;;4.80;99.90;;;;;;5060093;28;20021;-76
2023/11/25 09:11:01;;;;;;;9.40;1.20;;;4.80;99.90;;;;;;5060223;28;20025;-74
2023/11/25 09:13:26;;;;;;;6.88;1.30;;;4.80;99.90;;;;;;5059035;28;20021;-71
2023/11/25 09:15:52;;;;;;;6.97;1.20;;;4.80;99.90;;;;;;5057730;28;20083;-74
2023/11/25 09:18:18;;;;;;;7.50;1.38;;;4.90;99.90;;;;;;5059394;28;20045;-74
2023/11/25 09:20:44;;;;;;;11.52;1.65;;;4.90;99.90;;;;;;5059412;28;20029;-73
2023/11/25 09:23:11;;;;;;;8.50;1.60;;;5.00;99.90;;;;;;5060544;28;20028;-74
2023/11/25 09:25:36;;;;;;;9.48;2.03;;;5.00;99.90;;;;;;5060980;28;20033;-75
2023/11/25 09:28:03;;;;;;;16.20;2.05;;;5.20;99.90;;;;;;5059242;28;20025;-73
2023/11/25 09:30:29;;;;;;;7.72;1.50;;;5.20;99.90;;;;;;5058436;28;20025;-72
2023/11/25 09:32:55;;;;;;;19.92;3.13;;;5.40;99.90;;;;;;5058189;28;20111;-72
2023/11/25 09:35:22;;;;;;;10.00;1.55;;;5.60;99.90;;;;;;5058929;28;20044;-71
2023/11/25 09:37:50;;;;;;;9.90;1.83;;;5.80;99.90;;;;;;5055832;28;20025;-76
2023/11/25 09:40:17;;;;;;;8.40;1.63;;;6.10;99.90;;;;;;5057712;28;20049;-73
2023/11/25 09:42:44;;;;;;;8.43;1.20;;;6.10;99.90;;;;;;5058299;28;20093;-74
2023/11/25 09:45:10;;;;;;;7.35;1.23;;;6.20;99.90;;;;;;5060134;28;20124;-71
2023/11/25 09:47:43;;;;;;;19.83;2.85;;;6.20;99.90;;;;;;5058859;28;20033;-71
2023/11/25 09:50:10;;;;;;;6.32;1.40;;;6.30;99.90;;;;;;5059438;28;20029;-71
2023/11/25 09:52:52;;;;;;;8.90;1.67;;;6.40;99.90;;;;;;5060473;28;20048;-72
2023/11/25 09:55:21;;;;;;;8.10;1.48;;;6.60;99.90;;;;;;5061896;28;20041;-76
2023/11/25 09:57:50;;;;;;;7.40;1.52;;;6.70;99.90;;;;;;5058987;28;20040;-72
2023/11/25 10:00:17;;;;;;;9.07;1.75;;;6.80;99.90;;;;;;5057421;28;20036;-71
2023/11/25 10:02:45;;;;;;;14.48;3.63;;;6.90;99.90;;;;;;5060109;28;20071;-73
2023/11/25 10:05:11;;;;;;;10.60;2.72;;;7.20;99.90;;;;;;5062049;28;20024;-73
2023/11/25 10:07:37;;;;;;;19.92;4.40;;;7.30;99.90;;;;;;5063363;28;20029;-73
2023/11/25 10:10:04;;;;;;;12.30;1.70;;;7.30;99.90;;;;;;5062888;28;20033;-73
2023/11/25 10:12:30;;;;;;;11.98;2.90;;;7.30;99.90;;;;;;5061006;28;20044;-74
2023/11/25 10:14:59;;;;;;;22.85;6.30;;;7.30;99.90;;;;;;5061411;28;20502;-74
2023/11/25 10:17:25;;;;;;;13.68;2.17;;;7.20;99.90;;;;;;5060238;28;20431;-75
2023/11/25 10:20:06;;;;;;;15.25;2.00;;;7.20;99.90;;;;;;5058817;28;20088;-73
2023/11/25 10:22:44;;;;;;;9.35;1.35;;;7.10;99.90;;;;;;5060899;28;20036;-73
2023/11/25 10:25:10;;;;;;;8.27;1.50;;;6.90;99.90;;;;;;5058892;28;20476;-73
2023/11/25 10:27:38;;;;;;;9.15;1.23;;;6.80;99.90;;;;;;5059255;28;20651;-72
2023/11/25 10:30:05;;;;;;;11.48;1.52;;;6.70;99.90;;;;;;5061407;28;20115;-71
2023/11/25 10:32:35;;;;;;;15.32;1.30;;;6.60;99.90;;;;;;5054801;28;20566;-72
2023/11/25 10:35:01;;;;;;;10.25;1.77;;;6.50;99.90;;;;;;5062094;28;20043;-72
2023/11/25 10:37:27;;;;;;;4.75;1.20;;;6.60;99.90;;;;;;5062425;28;20029;-78
2023/11/25 10:39:52;;;;;;;9.52;1.35;;;6.60;99.90;;;;;;5061527;28;20035;-76
2023/11/25 10:42:19;;;;;;;9.10;1.38;;;6.70;99.90;;;;;;5060719;28;20048;-74
2023/11/25 10:44:48;;;;;;;12.63;1.52;;;6.70;99.90;;;;;;5061550;28;20021;-76
2023/11/25 10:47:33;;;;;;;7.72;1.42;;;6.70;99.90;;;;;;5060022;28;20021;-76
2023/11/25 10:50:06;;;;;;;8.02;1.80;;;6.70;99.90;;;;;;5061235;28;20020;-75
2023/11/25 10:52:36;;;;;;;4.50;1.13;;;6.80;99.90;;;;;;5059099;28;20068;-74
2023/11/25 10:55:05;;;;;;;7.82;1.30;;;6.70;99.90;;;;;;5055387;28;20032;-73
2023/11/25 10:57:32;;;;;;;6.32;1.08;;;6.70;99.90;;;;;;5050951;28;20033;-72
2023/11/25 10:59:59;;;;;;;9.65;1.13;;;6.80;99.90;;;;;;5060834;28;20025;-76
2023/11/25 11:02:29;;;;;;;6.70;1.20;;;6.70;99.90;;;;;;5056580;28;20084;-73
2023/11/25 11:05:02;;;;;;;13.57;1.35;;;6.60;99.90;;;;;;5061231;28;20040;-74
2023/11/25 11:07:30;;;;;;;10.18;1.20;;;6.70;99.90;;;;;;5061717;28;20462;-74
2023/11/25 11:10:00;;;;;;;3.95;0.88;;;6.80;99.90;;;;;;5061420;28;20028;-74
2023/11/25 11:12:43;;;;;;;6.15;0.98;;;6.90;99.90;;;;;;5061346;28;20021;-73
2023/11/25 11:15:18;;;;;;;14.35;1.60;;;7.10;99.90;;;;;;5062529;28;20033;-75
2023/11/25 11:18:06;;;;;;;5.88;1.10;;;7.10;99.90;;;;;;5062246;28;20041;-73
2023/11/25 11:20:36;;;;;;;8.00;1.25;;;7.30;99.90;;;;;;5062669;28;20081;-71
2023/11/25 11:23:03;;;;;;;7.15;1.00;;;7.40;99.90;;;;;;5058583;28;20029;-73
2023/11/25 11:25:50;;;;;;;6.80;1.27;;;7.60;99.90;;;;;;5048833;28;20104;-73
2023/11/25 11:28:25;;;;;;;6.53;1.05;;;7.70;99.90;;;;;;5051313;28;21170;-73
2023/11/25 11:31:22;;;;;;;4.72;0.80;;;7.80;99.90;;;;;;5056978;28;20044;-75
2023/11/25 11:33:47;;;;;;;7.88;0.90;;;7.90;99.90;;;;;;5059490;28;20040;-71
2023/11/25 11:36:32;;;;;;;5.15;1.08;;;8.20;99.90;;;;;;5061052;28;20041;-74
2023/11/25 11:38:58;;;;;;;10.50;3.85;;;8.50;99.90;;;;;;5061632;28;20039;-76
2023/11/25 11:41:25;;;;;;;10.63;3.13;;;8.90;99.90;;;;;;5059985;28;20509;-74
2023/11/25 11:44:00;;;;;;;21.23;6.22;;;8.90;99.90;;;;;;5061087;28;20040;-74
2023/11/25 11:46:27;;;;;;;48.72;14.10;;;8.60;99.90;;;;;;5055393;28;20032;-73
2023/11/25 11:48:54;;;;;;;41.72;11.70;;;8.40;99.90;;;;;;5055824;28;20112;-76
2023/11/25 11:51:22;;;;;;;77.00;20.85;;;8.30;99.90;;;;;;5054539;28;20067;-74
2023/11/25 11:54:20;;;;;;;75.60;23.17;;;8.20;99.90;;;;;;5060889;28;20025;-75
2023/11/25 11:57:02;;;;;;;17.00;6.03;;;8.20;99.90;;;;;;5059614;28;20079;-74
2023/11/25 11:59:59;;;;;;;16.42;8.20;;;8.20;99.90;;;;;;5056708;28;20064;-71
2023/11/25 12:02:31;;;;;;;40.13;18.38;;;8.20;99.90;;;;;;5074599;28;20025;-73
2023/11/25 12:05:01;;;;;;;27.98;13.73;;;8.20;99.90;;;;;;5060247;28;20052;-73
2023/11/25 12:07:27;;;;;;;83.75;17.85;;;8.20;99.90;;;;;;5060371;28;20052;-72
2023/11/25 12:09:55;;;;;;;24.50;4.75;;;8.20;99.90;;;;;;5060089;28;20021;-71
2023/11/25 12:12:21;;;;;;;18.50;3.85;;;8.20;99.90;;;;;;5060329;28;20040;-72
2023/11/25 12:14:47;;;;;;;26.27;5.47;;;8.00;99.90;;;;;;5060501;28;20016;-73
2023/11/25 12:17:13;;;;;;;41.30;7.57;;;8.00;99.90;;;;;;5061110;28;20025;-73
2023/11/25 12:19:41;;;;;;;60.58;10.60;;;8.00;99.90;;;;;;5058995;28;20831;-73
2023/11/25 12:22:09;;;;;;;31.40;6.22;;;8.10;99.90;;;;;;5061416;28;20082;-72
2023/11/25 12:24:34;;;;;;;39.90;6.85;;;8.30;99.90;;;;;;5061762;28;20086;-72
2023/11/25 12:27:03;;;;;;;12.00;2.20;;;8.30;99.90;;;;;;5060933;28;20052;-73
2023/11/25 12:29:33;;;;;;;34.20;4.75;;;8.40;99.90;;;;;;5060957;28;20085;-72
2023/11/25 12:31:59;;;;;;;23.75;4.15;;;8.50;99.90;;;;;;5061233;28;20087;-73
2023/11/25 12:34:25;;;;;;;40.67;5.55;;;8.40;99.90;;;;;;5061332;28;20084;-73
2023/11/25 12:36:50;;;;;;;52.83;7.07;;;8.30;99.90;;;;;;5061487;28;20071;-74
2023/11/25 12:39:16;;;;;;;9.85;2.88;;;8.40;99.90;;;;;;5061418;28;20106;-72
2023/11/25 12:41:43;;;;;;;38.70;5.88;;;8.40;99.90;;;;;;5059582;28;20037;-72
2023/11/25 12:44:09;;;;;;;28.17;4.65;;;8.40;99.90;;;;;;5061494;28;20045;-72
2023/11/25 12:46:39;;;;;;;26.70;4.68;;;8.40;99.90;;;;;;5060651;28;20159;-72
2023/11/25 12:49:22;;;;;;;33.47;4.20;;;8.40;99.90;;;;;;5060948;28;20029;-73
2023/11/25 12:51:50;;;;;;;79.32;10.48;;;8.40;99.90;;;;;;5060784;28;20139;-76